Time;durP1;ratioP1;P1;durP2;ratioP2;P2;SDS_P1;SDS_P2;PMS_P1;PMS_P2;Temp;Humidity;BMP_temperature;BMP_pressure;BME280_temperature;BME280_humidity;BME280_pressure;Samples;Min_cycle;Max_cycle;Signal;HPM_P1;HPM_P2
2022/04/05 00:02:17;;;;;;;34.50;24.38;;;10.80;99.90;;;;;;5095478;28;20177;-60
2022/04/05 00:04:43;;;;;;;37.25;23.25;;;10.80;99.90;;;;;;5077218;28;20190;-60
2022/04/05 00:07:09;;;;;;;31.85;22.92;;;10.80;99.90;;;;;;5077482;28;20227;-60
2022/04/05 00:09:35;;;;;;;38.55;24.17;;;10.70;99.90;;;;;;5077461;28;20296;-60
2022/04/05 00:12:01;;;;;;;32.08;22.30;;;10.70;99.90;;;;;;5077517;28;20170;-61
2022/04/05 00:14:26;;;;;;;37.90;22.40;;;10.70;99.90;;;;;;5077245;28;20178;-61
2022/04/05 00:16:52;;;;;;;31.30;23.23;;;10.80;99.90;;;;;;5077239;28;20170;-61
2022/04/05 00:19:19;;;;;;;32.72;23.13;;;10.80;99.90;;;;;;5095182;28;20261;-61
2022/04/05 00:21:45;;;;;;;31.17;21.70;;;10.80;99.90;;;;;;5095131;28;20202;-60
2022/04/05 00:24:11;;;;;;;33.47;21.27;;;10.80;99.90;;;;;;5094895;28;20181;-60
2022/04/05 00:26:37;;;;;;;37.63;21.92;;;10.80;99.90;;;;;;5094956;28;20597;-60
2022/04/05 00:29:03;;;;;;;34.83;21.08;;;10.80;99.90;;;;;;5094888;28;20205;-60
2022/04/05 00:31:29;;;;;;;35.00;20.45;;;10.80;99.90;;;;;;5094870;28;20205;-61
2022/04/05 00:33:54;;;;;;;33.67;21.55;;;10.70;99.90;;;;;;5077073;28;20212;-60
2022/04/05 00:36:20;;;;;;;34.13;20.95;;;10.80;99.90;;;;;;5094754;28;20178;-60
2022/04/05 00:38:46;;;;;;;32.05;20.95;;;10.90;99.90;;;;;;5076676;28;20281;-61
2022/04/05 00:41:12;;;;;;;37.50;22.08;;;10.90;99.90;;;;;;5094874;28;20212;-60
2022/04/05 00:43:37;;;;;;;33.80;20.73;;;10.90;99.90;;;;;;5094643;28;20640;-60
2022/04/05 00:46:03;;;;;;;33.08;21.83;;;10.70;99.90;;;;;;5076685;28;20629;-60
2022/04/05 00:48:32;;;;;;;37.53;21.33;;;10.80;99.90;;;;;;5094523;28;20174;-61
2022/04/05 00:50:58;;;;;;;33.30;21.85;;;10.90;99.90;;;;;;5094552;28;20194;-61
2022/04/05 00:53:25;;;;;;;36.45;22.83;;;10.90;99.90;;;;;;5094882;28;20209;-60
2022/04/05 00:55:54;;;;;;;32.35;21.73;;;10.80;99.90;;;;;;5077081;28;20629;-60
2022/04/05 00:58:23;;;;;;;34.03;21.58;;;10.80;99.90;;;;;;5094590;28;20181;-60
2022/04/05 01:00:49;;;;;;;32.08;20.40;;;10.90;99.90;;;;;;5094577;28;20185;-61
2022/04/05 01:03:16;;;;;;;31.90;20.83;;;10.80;99.90;;;;;;5094570;28;20174;-60
2022/04/05 01:05:43;;;;;;;31.52;20.98;;;10.70;99.90;;;;;;5076241;28;20209;-60
2022/04/05 01:08:12;;;;;;;30.20;20.73;;;10.80;99.90;;;;;;5094118;28;20182;-60
2022/04/05 01:10:38;;;;;;;30.10;20.35;;;10.90;99.90;;;;;;5094248;28;20209;-60
2022/04/05 01:13:04;;;;;;;31.63;20.70;;;10.90;99.90;;;;;;5076143;28;20194;-60
2022/04/05 01:15:29;;;;;;;30.00;20.17;;;10.80;99.90;;;;;;5094190;28;20169;-60
2022/04/05 01:17:55;;;;;;;31.98;19.63;;;10.80;99.90;;;;;;5094009;28;20170;-60
2022/04/05 01:20:21;;;;;;;30.17;19.88;;;10.80;99.90;;;;;;5093993;28;20186;-60
2022/04/05 01:22:51;;;;;;;27.63;18.35;;;10.90;99.90;;;;;;5059028;28;20545;-60
2022/04/05 01:25:18;;;;;;;30.30;19.67;;;10.90;99.90;;;;;;5094036;28;20166;-60
2022/04/05 01:27:44;;;;;;;27.40;18.95;;;10.90;99.90;;;;;;5093965;28;20174;-60
2022/04/05 01:30:10;;;;;;;29.30;19.95;;;10.80;99.90;;;;;;5094153;28;20202;-60
2022/04/05 01:32:37;;;;;;;27.05;17.67;;;10.80;99.90;;;;;;5075576;28;20193;-60
2022/04/05 01:35:04;;;;;;;30.15;18.70;;;10.90;99.90;;;;;;5093610;28;20186;-60
2022/04/05 01:37:30;;;;;;;27.35;18.10;;;10.80;99.90;;;;;;5075795;28;20178;-61
2022/04/05 01:39:56;;;;;;;32.63;18.90;;;10.90;99.90;;;;;;5093796;28;20174;-61
2022/04/05 01:42:21;;;;;;;25.52;17.50;;;10.90;99.90;;;;;;5093642;28;20173;-61
2022/04/05 01:44:47;;;;;;;28.55;18.38;;;10.90;99.90;;;;;;5093528;28;20256;-60
2022/04/05 01:47:16;;;;;;;30.70;18.27;;;10.90;99.90;;;;;;5075515;28;20254;-60
2022/04/05 01:49:44;;;;;;;24.30;17.67;;;10.90;99.90;;;;;;5092654;28;20248;-61
2022/04/05 01:52:10;;;;;;;25.50;18.65;;;10.90;99.90;;;;;;5093580;28;20180;-61
2022/04/05 01:54:37;;;;;;;26.50;18.05;;;11.10;99.90;;;;;;5075449;28;20169;-60
2022/04/05 01:57:03;;;;;;;26.65;17.70;;;11.00;99.90;;;;;;5093542;28;20207;-60
2022/04/05 01:59:31;;;;;;;28.70;18.45;;;11.00;99.90;;;;;;5093405;28;20264;-60
2022/04/05 02:01:57;;;;;;;26.70;18.02;;;11.00;99.90;;;;;;5093360;28;20170;-60
2022/04/05 02:04:23;;;;;;;26.65;17.73;;;10.90;99.90;;;;;;5093086;28;20400;-60
2022/04/05 02:06:49;;;;;;;25.88;17.92;;;11.00;99.90;;;;;;5093474;28;20166;-60
2022/04/05 02:09:16;;;;;;;26.17;17.45;;;11.00;99.90;;;;;;5093300;28;20194;-60
2022/04/05 02:11:44;;;;;;;26.70;18.48;;;11.00;99.90;;;;;;5093315;28;20207;-60
2022/04/05 02:14:11;;;;;;;24.52;16.90;;;10.90;99.90;;;;;;5093284;28;20256;-60
2022/04/05 02:16:37;;;;;;;26.27;17.05;;;10.90;99.90;;;;;;5093164;28;20162;-60
2022/04/05 02:19:03;;;;;;;28.77;16.52;;;11.00;99.90;;;;;;5093344;28;20201;-60
2022/04/05 02:21:28;;;;;;;21.63;16.67;;;11.00;99.90;;;;;;5093035;28;20180;-60
2022/04/05 02:23:54;;;;;;;31.75;18.30;;;10.90;99.90;;;;;;5093525;28;20181;-60
2022/04/05 02:26:20;;;;;;;23.00;16.10;;;10.90;99.90;;;;;;5058515;28;20177;-60
2022/04/05 02:28:47;;;;;;;25.63;17.55;;;10.90;99.90;;;;;;5093068;28;20178;-60
2022/04/05 02:31:13;;;;;;;25.50;16.30;;;10.90;99.90;;;;;;5092907;28;20225;-60
2022/04/05 02:33:39;;;;;;;23.60;16.45;;;10.80;99.90;;;;;;5093361;28;20178;-60
2022/04/05 02:36:04;;;;;;;23.23;16.20;;;10.90;99.90;;;;;;5093099;28;20162;-60
2022/04/05 02:38:30;;;;;;;26.60;16.13;;;10.90;99.90;;;;;;5092924;28;20692;-60
2022/04/05 02:40:59;;;;;;;22.98;15.73;;;10.90;99.90;;;;;;5058313;28;20239;-60
2022/04/05 02:43:25;;;;;;;20.23;15.18;;;10.90;99.90;;;;;;5074873;28;20192;-60
2022/04/05 02:45:54;;;;;;;24.50;15.75;;;10.90;99.90;;;;;;5074798;28;20227;-60
2022/04/05 02:48:24;;;;;;;23.55;15.93;;;10.90;99.90;;;;;;5092995;28;20170;-60
2022/04/05 02:50:50;;;;;;;23.20;15.35;;;10.70;99.90;;;;;;5075318;28;20740;-60
2022/04/05 02:53:15;;;;;;;21.02;14.48;;;10.70;99.90;;;;;;5075026;28;20649;-61
2022/04/05 02:55:42;;;;;;;23.23;15.70;;;10.90;99.90;;;;;;5075035;28;20185;-61
2022/04/05 02:58:08;;;;;;;22.58;14.98;;;10.90;99.90;;;;;;5092771;28;20182;-60
2022/04/05 03:00:35;;;;;;;19.67;14.32;;;10.90;99.90;;;;;;5077238;28;20178;-60
2022/04/05 03:03:01;;;;;;;20.10;14.10;;;10.90;99.90;;;;;;5096744;28;20173;-61
2022/04/05 03:05:26;;;;;;;19.90;14.70;;;10.80;99.90;;;;;;5078332;28;20196;-60
2022/04/05 03:07:52;;;;;;;20.65;14.43;;;10.90;99.90;;;;;;5078512;28;20174;-61
2022/04/05 03:10:18;;;;;;;21.33;14.38;;;10.80;99.90;;;;;;5096439;28;20288;-61
2022/04/05 03:12:43;;;;;;;21.42;14.05;;;10.80;99.90;;;;;;5096495;28;20220;-61
2022/04/05 03:15:09;;;;;;;19.65;13.32;;;10.80;99.90;;;;;;5096371;28;20174;-61
2022/04/05 03:17:42;;;;;;;22.83;14.75;;;10.90;99.90;;;;;;5096519;28;20167;-60
2022/04/05 03:20:08;;;;;;;21.05;14.32;;;10.90;99.90;;;;;;5096536;28;20185;-61
2022/04/05 03:22:34;;;;;;;21.80;13.75;;;10.90;99.90;;;;;;5078014;28;20206;-60
2022/04/05 03:24:59;;;;;;;19.95;13.77;;;10.90;99.90;;;;;;5096196;28;20205;-60
2022/04/05 03:27:25;;;;;;;21.25;13.95;;;10.90;99.90;;;;;;5096129;28;20165;-60
2022/04/05 03:29:51;;;;;;;18.75;13.77;;;10.90;99.90;;;;;;5095936;28;20198;-60
2022/04/05 03:32:17;;;;;;;16.40;13.18;;;10.80;99.90;;;;;;5096253;28;20182;-60
2022/04/05 03:34:42;;;;;;;21.10;12.95;;;10.90;99.90;;;;;;5061364;28;20261;-60
2022/04/05 03:37:08;;;;;;;20.80;13.48;;;11.00;99.90;;;;;;5095954;28;20180;-60
2022/04/05 03:39:34;;;;;;;20.23;14.55;;;10.90;99.90;;;;;;5096038;28;20650;-60
2022/04/05 03:42:00;;;;;;;17.17;13.25;;;10.90;99.90;;;;;;5077851;28;20177;-60
2022/04/05 03:44:26;;;;;;;19.95;14.10;;;10.80;99.90;;;;;;5095827;28;20308;-60
2022/04/05 03:46:52;;;;;;;20.42;14.32;;;10.80;99.90;;;;;;5096019;28;20212;-61
2022/04/05 03:49:18;;;;;;;17.80;14.10;;;10.80;99.90;;;;;;5095887;28;20182;-60
2022/04/05 03:51:44;;;;;;;20.73;14.52;;;10.90;99.90;;;;;;5095702;28;20529;-60
2022/04/05 03:54:10;;;;;;;24.50;15.45;;;10.80;99.90;;;;;;5095888;28;20182;-61
2022/04/05 03:56:36;;;;;;;20.10;14.90;;;10.90;99.90;;;;;;5095566;28;20173;-60
2022/04/05 03:59:02;;;;;;;23.85;15.82;;;10.90;99.90;;;;;;5095523;28;20673;-60
2022/04/05 04:01:27;;;;;;;28.38;15.82;;;10.90;99.90;;;;;;5060860;28;20186;-60
2022/04/05 04:03:53;;;;;;;23.88;15.82;;;10.90;99.90;;;;;;5095779;28;20193;-60
2022/04/05 04:06:18;;;;;;;23.02;15.93;;;10.90;99.90;;;;;;5095339;28;20190;-60
2022/04/05 04:08:44;;;;;;;22.15;16.30;;;10.90;99.90;;;;;;5095446;28;20708;-61
2022/04/05 04:11:10;;;;;;;21.65;16.25;;;11.00;99.90;;;;;;5094499;28;20564;-61
2022/04/05 04:13:35;;;;;;;19.98;16.20;;;10.80;99.90;;;;;;5095524;28;20170;-60
2022/04/05 04:16:01;;;;;;;22.85;15.88;;;10.80;99.90;;;;;;5095424;28;20174;-60
2022/04/05 04:18:27;;;;;;;24.17;16.73;;;10.90;99.90;;;;;;5095274;28;20174;-60
2022/04/05 04:20:53;;;;;;;22.98;17.30;;;10.80;99.90;;;;;;5095059;28;20611;-60
2022/04/05 04:23:19;;;;;;;23.55;17.27;;;10.80;99.90;;;;;;5060220;28;20323;-60
2022/04/05 04:25:45;;;;;;;26.02;18.98;;;10.70;99.90;;;;;;5094984;28;20175;-60
2022/04/05 04:28:11;;;;;;;28.85;19.10;;;10.70;99.90;;;;;;5094913;28;20189;-61
2022/04/05 04:30:39;;;;;;;27.95;18.00;;;10.80;99.90;;;;;;5094968;28;20209;-61
2022/04/05 04:33:06;;;;;;;24.92;18.90;;;10.80;99.90;;;;;;5094857;28;20266;-62
2022/04/05 04:35:32;;;;;;;25.05;18.60;;;10.80;99.90;;;;;;5094928;28;20178;-61
2022/04/05 04:38:01;;;;;;;24.20;17.98;;;10.80;99.90;;;;;;5094848;28;20295;-61
2022/04/05 04:40:27;;;;;;;27.08;17.98;;;10.80;99.90;;;;;;5094676;28;20540;-61
2022/04/05 04:42:53;;;;;;;23.20;18.38;;;10.80;99.90;;;;;;5094632;28;20180;-60
2022/04/05 04:45:20;;;;;;;23.75;17.98;;;10.90;99.90;;;;;;5094762;28;20174;-61
2022/04/05 04:47:45;;;;;;;24.27;17.77;;;10.90;99.90;;;;;;5094744;28;20174;-60
2022/04/05 04:50:11;;;;;;;22.92;17.17;;;10.90;99.90;;;;;;5094509;28;20198;-61
2022/04/05 04:52:37;;;;;;;26.08;17.73;;;10.90;99.90;;;;;;5094498;28;20235;-60
2022/04/05 04:55:05;;;;;;;18.85;16.40;;;10.80;99.90;;;;;;5094377;28;20173;-60
2022/04/05 04:57:30;;;;;;;23.38;16.70;;;10.80;99.90;;;;;;5094505;28;20182;-60
2022/04/05 04:59:56;;;;;;;19.00;15.55;;;10.80;99.90;;;;;;5094767;28;20185;-61
2022/04/05 05:02:22;;;;;;;23.17;16.45;;;10.80;99.90;;;;;;5094736;28;20182;-60
2022/04/05 05:04:49;;;;;;;22.27;15.85;;;10.90;99.90;;;;;;5094240;28;20190;-57
2022/04/05 05:07:15;;;;;;;21.75;16.00;;;10.90;99.90;;;;;;5094147;28;20220;-60
2022/04/05 05:09:41;;;;;;;19.35;14.90;;;10.90;99.90;;;;;;5075696;28;20223;-60
2022/04/05 05:12:10;;;;;;;19.17;13.93;;;10.80;99.90;;;;;;5094582;28;20579;-60
2022/04/05 05:14:38;;;;;;;22.38;15.80;;;10.80;99.90;;;;;;5094229;28;20274;-60
2022/04/05 05:17:05;;;;;;;21.10;13.73;;;10.90;99.90;;;;;;5094253;28;20231;-60
2022/04/05 05:19:31;;;;;;;18.52;13.85;;;10.80;99.90;;;;;;5094399;28;20170;-60
2022/04/05 05:21:57;;;;;;;15.35;13.38;;;10.80;99.90;;;;;;5092954;28;20163;-60
2022/04/05 05:24:23;;;;;;;18.10;13.70;;;10.80;99.90;;;;;;5092785;28;20185;-60
2022/04/05 05:26:49;;;;;;;17.90;12.75;;;10.90;99.90;;;;;;5093937;28;20715;-60
2022/04/05 05:29:15;;;;;;;17.25;12.98;;;10.90;99.90;;;;;;5094013;28;20180;-60
2022/04/05 05:31:41;;;;;;;17.00;12.98;;;10.90;99.90;;;;;;5093744;28;20245;-60
2022/04/05 05:34:07;;;;;;;14.45;12.45;;;10.90;99.90;;;;;;5093598;28;20317;-60
2022/04/05 05:36:32;;;;;;;17.52;13.38;;;10.90;99.90;;;;;;5093648;28;20183;-59
2022/04/05 05:38:58;;;;;;;17.15;13.20;;;10.90;99.90;;;;;;5093655;28;20587;-59
2022/04/05 05:41:24;;;;;;;14.50;12.05;;;10.90;99.90;;;;;;5093977;28;20177;-60
2022/04/05 05:43:49;;;;;;;14.45;12.85;;;11.00;99.90;;;;;;5093747;28;20555;-60
2022/04/05 05:46:15;;;;;;;15.80;12.07;;;10.90;99.90;;;;;;5093497;28;20162;-60
2022/04/05 05:48:42;;;;;;;16.63;12.45;;;10.90;99.90;;;;;;5093500;28;20272;-59
2022/04/05 05:51:08;;;;;;;13.70;11.48;;;10.90;99.90;;;;;;5093407;28;20623;-59
2022/04/05 05:53:34;;;;;;;15.43;12.15;;;10.80;99.90;;;;;;5093280;28;20619;-59
2022/04/05 05:56:00;;;;;;;15.82;12.25;;;10.90;99.90;;;;;;5093653;28;20222;-60
2022/04/05 05:58:26;;;;;;;13.35;11.60;;;10.90;99.90;;;;;;5093440;28;20272;-60
2022/04/05 06:00:51;;;;;;;14.45;12.20;;;10.90;99.90;;;;;;5093450;28;20288;-59
2022/04/05 06:03:17;;;;;;;14.60;11.70;;;11.00;99.90;;;;;;5093166;28;20182;-60
2022/04/05 06:05:43;;;;;;;16.05;12.63;;;11.00;99.90;;;;;;5093319;28;20223;-60
2022/04/05 06:08:10;;;;;;;14.23;11.60;;;11.00;99.90;;;;;;5093358;28;20174;-60
2022/04/05 06:10:36;;;;;;;14.63;12.75;;;10.90;99.90;;;;;;5093508;28;20347;-60
2022/04/05 06:13:01;;;;;;;14.02;11.93;;;10.90;99.90;;;;;;5093180;28;20206;-60
2022/04/05 06:15:28;;;;;;;13.23;11.77;;;10.90;99.90;;;;;;5093371;28;20200;-60
2022/04/05 06:17:55;;;;;;;13.55;12.10;;;10.90;99.90;;;;;;5093147;28;20236;-60
2022/04/05 06:20:22;;;;;;;17.50;12.70;;;10.90;99.90;;;;;;5093058;28;20235;-60
2022/04/05 06:23:13;;;;;;;17.63;12.27;;;11.00;99.90;;;;;;5093119;28;20174;-60
2022/04/05 06:25:39;;;;;;;14.23;12.48;;;11.00;99.90;;;;;;5088518;28;20247;-60
2022/04/05 06:28:07;;;;;;;14.45;12.95;;;11.10;99.90;;;;;;5075142;28;20538;-59
2022/04/05 06:30:34;;;;;;;18.02;13.40;;;11.10;99.90;;;;;;5093160;28;20190;-60
2022/04/05 06:33:11;;;;;;;16.73;13.23;;;11.20;99.90;;;;;;5092825;28;20510;-60
2022/04/05 06:35:51;;;;;;;15.20;13.30;;;11.40;99.90;;;;;;5096037;28;20640;-60
2022/04/05 06:38:17;;;;;;;15.45;12.77;;;11.30;99.90;;;;;;5097136;28;20651;-60
2022/04/05 06:40:43;;;;;;;14.45;13.05;;;11.40;99.90;;;;;;5097228;28;20652;-60
2022/04/05 06:43:13;;;;;;;14.63;12.70;;;11.40;99.90;;;;;;5097318;28;20166;-60
2022/04/05 06:45:40;;;;;;;14.45;13.07;;;11.50;99.90;;;;;;5097231;28;20185;-60
2022/04/05 06:48:06;;;;;;;14.13;12.45;;;11.40;99.90;;;;;;5097049;28;20182;-59
2022/04/05 06:50:33;;;;;;;15.02;12.18;;;11.40;99.90;;;;;;5096900;28;20227;-60
2022/04/05 06:52:59;;;;;;;13.38;11.57;;;11.30;99.90;;;;;;5096985;28;20181;-60
2022/04/05 06:55:26;;;;;;;12.82;11.50;;;11.40;99.90;;;;;;5096755;28;20174;-60
2022/04/05 06:57:52;;;;;;;13.80;12.40;;;11.30;99.90;;;;;;5096708;28;20181;-59
2022/04/05 07:00:20;;;;;;;13.30;11.95;;;11.30;99.90;;;;;;5096931;28;20186;-59
2022/04/05 07:02:45;;;;;;;13.93;12.02;;;11.20;99.90;;;;;;5096820;28;20178;-59
2022/04/05 07:05:12;;;;;;;12.98;11.68;;;11.20;99.90;;;;;;5096807;28;20192;-59
2022/04/05 07:07:39;;;;;;;13.23;11.85;;;11.30;99.90;;;;;;5096632;28;20509;-59
2022/04/05 07:10:05;;;;;;;14.23;12.38;;;11.20;99.90;;;;;;5096451;28;20675;-60
2022/04/05 07:12:32;;;;;;;13.75;11.85;;;11.20;99.90;;;;;;5096380;28;20181;-59
2022/04/05 07:14:58;;;;;;;12.98;11.50;;;11.30;99.90;;;;;;5096670;28;20224;-59
2022/04/05 07:17:25;;;;;;;13.10;11.57;;;11.30;99.90;;;;;;5096553;28;20178;-59
2022/04/05 07:19:52;;;;;;;13.02;11.63;;;11.30;99.90;;;;;;5096333;28;20205;-59
2022/04/05 07:22:18;;;;;;;15.00;11.52;;;11.30;99.90;;;;;;5096374;28;20633;-60
2022/04/05 07:24:44;;;;;;;13.70;12.30;;;11.40;99.90;;;;;;5096212;28;20178;-60
2022/04/05 07:27:10;;;;;;;15.45;12.30;;;11.40;99.90;;;;;;5096401;28;20185;-59
2022/04/05 07:29:35;;;;;;;13.10;11.70;;;11.40;99.90;;;;;;5096358;28;20249;-60
2022/04/05 07:32:01;;;;;;;13.27;11.88;;;11.50;99.90;;;;;;5096140;28;20304;-60
2022/04/05 07:34:27;;;;;;;12.38;11.05;;;11.50;99.90;;;;;;5096200;28;20174;-60
2022/04/05 07:36:52;;;;;;;12.60;11.48;;;11.60;99.90;;;;;;5096175;28;20638;-60
2022/04/05 07:39:21;;;;;;;12.00;10.95;;;11.50;99.90;;;;;;5095982;28;20243;-60
2022/04/05 07:41:47;;;;;;;12.73;10.95;;;11.60;99.90;;;;;;5095822;28;20189;-60
2022/04/05 07:44:13;;;;;;;13.65;12.35;;;11.70;99.90;;;;;;5096069;28;20627;-60
2022/04/05 07:46:39;;;;;;;14.60;13.20;;;11.70;99.90;;;;;;5095037;28;20162;-59
2022/04/05 07:49:05;;;;;;;13.55;12.25;;;11.60;99.90;;;;;;5095837;28;20215;-59
2022/04/05 07:51:30;;;;;;;11.98;10.82;;;11.70;99.90;;;;;;5095810;28;20220;-59
2022/04/05 07:53:56;;;;;;;11.82;10.63;;;11.60;99.90;;;;;;5095667;28;20178;-60
2022/04/05 07:56:22;;;;;;;11.80;10.70;;;11.60;99.90;;;;;;5095475;28;20224;-60
2022/04/05 07:58:48;;;;;;;12.65;11.35;;;11.60;99.90;;;;;;5095792;28;20178;-59
2022/04/05 08:01:14;;;;;;;12.88;11.57;;;11.50;99.90;;;;;;5095637;28;20177;-60
2022/04/05 08:03:39;;;;;;;13.52;11.55;;;11.40;99.90;;;;;;5095590;28;20216;-60
2022/04/05 08:06:06;;;;;;;14.07;12.45;;;11.50;99.90;;;;;;5095506;28;20533;-60
2022/04/05 08:08:32;;;;;;;13.52;12.32;;;11.50;99.90;;;;;;5095370;28;20177;-60
2022/04/05 08:10:58;;;;;;;14.27;12.23;;;11.60;99.90;;;;;;5095142;28;20193;-60
2022/04/05 08:13:26;;;;;;;13.60;12.40;;;11.60;99.90;;;;;;5095362;28;20178;-60
2022/04/05 08:15:52;;;;;;;13.65;12.45;;;11.60;99.90;;;;;;5095420;28;20182;-60
2022/04/05 08:18:19;;;;;;;14.02;12.73;;;11.80;99.90;;;;;;5095100;28;20186;-60
2022/04/05 08:20:45;;;;;;;14.60;13.02;;;11.80;99.90;;;;;;5095192;28;20170;-60
2022/04/05 08:23:11;;;;;;;13.55;12.25;;;11.80;99.90;;;;;;5077169;28;20529;-60
2022/04/05 08:25:37;;;;;;;15.15;13.75;;;11.80;99.90;;;;;;5094980;28;20174;-60
2022/04/05 08:28:04;;;;;;;15.25;13.75;;;11.80;99.90;;;;;;5095170;28;20376;-60
2022/04/05 08:30:30;;;;;;;14.80;13.35;;;12.00;99.90;;;;;;5095043;28;20688;-60
2022/04/05 08:32:56;;;;;;;13.48;12.27;;;12.00;99.90;;;;;;5094940;28;20186;-60
2022/04/05 08:35:23;;;;;;;14.25;12.82;;;11.90;99.90;;;;;;5094913;28;20219;-60
2022/04/05 08:37:51;;;;;;;13.95;12.07;;;11.90;99.90;;;;;;5094845;28;20253;-60
2022/04/05 08:40:18;;;;;;;13.88;12.25;;;12.00;99.90;;;;;;5095128;28;20201;-60
2022/04/05 08:42:49;;;;;;;14.02;12.40;;;12.00;99.90;;;;;;5077124;28;20191;-60
2022/04/05 08:45:16;;;;;;;12.38;11.02;;;12.20;99.90;;;;;;5094933;28;20163;-59
2022/04/05 08:47:48;;;;;;;12.65;11.43;;;12.20;99.90;;;;;;5094708;28;20178;-59
2022/04/05 08:50:29;;;;;;;12.65;11.45;;;12.30;99.90;;;;;;5094761;28;20671;-60
2022/04/05 08:52:57;;;;;;;12.77;11.57;;;12.30;99.90;;;;;;5094764;28;20173;-59
2022/04/05 08:55:23;;;;;;;13.27;12.07;;;12.30;99.90;;;;;;5094616;28;20257;-60
2022/04/05 08:57:49;;;;;;;12.20;11.05;;;12.30;99.90;;;;;;5094359;28;20181;-59
2022/04/05 09:00:21;;;;;;;12.48;11.27;;;12.40;99.90;;;;;;5094466;28;20659;-60
2022/04/05 09:03:01;;;;;;;12.85;11.65;;;12.40;99.90;;;;;;5094442;28;20648;-60
2022/04/05 09:05:35;;;;;;;12.32;11.23;;;12.30;99.90;;;;;;5094635;28;20185;-60
2022/04/05 09:08:20;;;;;;;14.15;12.82;;;12.40;99.90;;;;;;5094242;28;20166;-60
2022/04/05 09:10:49;;;;;;;13.50;12.27;;;12.60;99.90;;;;;;5094245;28;20208;-60
2022/04/05 09:13:23;;;;;;;13.63;12.32;;;12.70;99.90;;;;;;5094076;28;20676;-59
2022/04/05 09:15:52;;;;;;;13.50;12.10;;;12.90;99.90;;;;;;5076464;28;20197;-59
2022/04/05 09:18:37;;;;;;;13.35;11.60;;;12.90;99.90;;;;;;5094156;28;20198;-60
2022/04/05 09:21:05;;;;;;;11.95;10.85;;;13.00;99.90;;;;;;5094026;28;20643;-60
2022/04/05 09:23:41;;;;;;;12.13;11.02;;;12.90;99.90;;;;;;5093934;28;20482;-59
2022/04/05 09:26:12;;;;;;;11.13;10.13;;;13.00;99.90;;;;;;5093883;28;20178;-60
2022/04/05 09:28:42;;;;;;;10.98;9.88;;;12.90;99.90;;;;;;5076158;28;20185;-59
2022/04/05 09:31:11;;;;;;;11.10;10.00;;;12.90;99.90;;;;;;5093747;28;20736;-60
2022/04/05 09:33:39;;;;;;;11.15;10.25;;;12.90;99.90;;;;;;5093875;28;20243;-59
2022/04/05 09:36:13;;;;;;;11.10;10.10;;;12.90;99.90;;;;;;5093862;28;20207;-60
2022/04/05 09:38:43;;;;;;;11.70;10.70;;;13.00;99.90;;;;;;5093912;28;20486;-60
2022/04/05 09:41:22;;;;;;;13.50;12.10;;;13.00;99.90;;;;;;5093782;28;20181;-60
2022/04/05 09:43:59;;;;;;;13.20;11.95;;;13.00;99.90;;;;;;5093749;28;20239;-60
2022/04/05 09:46:28;;;;;;;12.00;10.90;;;13.00;99.90;;;;;;5093658;28;20592;-59
2022/04/05 09:49:14;;;;;;;12.93;11.82;;;13.00;99.90;;;;;;5093743;28;20591;-59
2022/04/05 09:51:45;;;;;;;11.68;10.77;;;13.10;99.90;;;;;;5093543;28;20205;-59
2022/04/05 09:54:28;;;;;;;12.20;11.20;;;13.10;99.90;;;;;;5093484;28;20606;-59
2022/04/05 09:57:30;;;;;;;11.77;10.60;;;13.20;99.90;;;;;;5093537;28;20185;-59
2022/04/05 10:00:10;;;;;;;12.02;10.93;;;13.00;99.90;;;;;;5093423;28;20173;-59
2022/04/05 10:02:36;;;;;;;11.35;10.35;;;13.00;99.90;;;;;;5075401;28;20694;-59
2022/04/05 10:05:06;;;;;;;11.52;10.52;;;12.80;99.90;;;;;;5093381;28;20182;-59
2022/04/05 10:07:33;;;;;;;12.20;10.65;;;12.80;99.90;;;;;;5093380;28;20169;-59
2022/04/05 10:10:00;;;;;;;11.02;10.00;;;12.80;99.90;;;;;;5092858;28;20206;-59
2022/04/05 10:12:26;;;;;;;10.63;9.63;;;12.80;99.90;;;;;;5093349;28;20173;-59
2022/04/05 10:14:52;;;;;;;10.95;9.82;;;12.80;99.90;;;;;;5093340;28;20246;-59
2022/04/05 10:17:20;;;;;;;11.13;9.57;;;12.80;99.90;;;;;;5075407;28;20170;-59
2022/04/05 10:19:49;;;;;;;10.00;9.00;;;12.80;99.90;;;;;;5093022;28;20162;-59
2022/04/05 10:22:17;;;;;;;9.45;8.65;;;12.80;99.90;;;;;;5093091;28;20174;-59
2022/04/05 10:24:45;;;;;;;10.30;9.30;;;12.80;99.90;;;;;;5093319;28;20526;-59
2022/04/05 10:27:11;;;;;;;9.73;8.93;;;12.80;99.90;;;;;;5093259;28;20162;-60
2022/04/05 10:29:37;;;;;;;10.35;9.50;;;12.90;99.90;;;;;;5093104;28;20178;-60
2022/04/05 10:32:09;;;;;;;9.70;8.90;;;12.80;99.90;;;;;;5093090;28;20659;-59
2022/04/05 10:34:54;;;;;;;9.90;9.07;;;12.80;99.90;;;;;;5093186;28;20224;-60
2022/04/05 10:37:35;;;;;;;9.50;8.70;;;12.90;99.90;;;;;;5093382;28;20176;-60
2022/04/05 10:40:00;;;;;;;8.43;7.63;;;13.00;99.90;;;;;;5093147;28;20521;-59
2022/04/05 10:42:41;;;;;;;8.55;7.72;;;13.00;99.90;;;;;;5092923;28;20162;-59
2022/04/05 10:45:20;;;;;;;8.57;7.88;;;13.10;99.90;;;;;;5092943;28;20170;-59
2022/04/05 10:48:21;;;;;;;8.77;7.93;;;13.10;99.90;;;;;;5093133;28;20236;-59
2022/04/05 10:51:07;;;;;;;8.77;7.88;;;13.20;99.90;;;;;;5092943;28;20193;-59
2022/04/05 10:53:38;;;;;;;7.90;7.15;;;13.40;99.90;;;;;;5092687;28;20174;-59
2022/04/05 10:56:04;;;;;;;8.02;7.32;;;13.50;99.90;;;;;;5092961;28;20170;-59
2022/04/05 10:58:29;;;;;;;10.25;9.25;;;13.40;99.90;;;;;;5092819;28;20170;-60
2022/04/05 11:01:19;;;;;;;8.57;7.78;;;13.40;99.90;;;;;;5092884;28;20230;-60
2022/04/05 11:04:13;;;;;;;8.48;7.78;;;13.40;99.90;;;;;;5092596;28;20190;-59
2022/04/05 11:07:05;;;;;;;7.60;7.00;;;13.50;99.90;;;;;;5092818;28;20170;-59
2022/04/05 11:09:43;;;;;;;7.45;6.88;;;13.60;99.90;;;;;;5092810;28;20162;-59
2022/04/05 11:12:12;;;;;;;7.70;7.00;;;13.50;99.90;;;;;;5092606;28;20196;-59
2022/04/05 11:14:38;;;;;;;7.07;6.40;;;13.60;99.90;;;;;;5092983;28;20261;-59
2022/04/05 11:17:06;;;;;;;7.07;6.57;;;13.70;99.90;;;;;;5074676;28;20174;-59
2022/04/05 11:19:35;;;;;;;6.82;6.18;;;13.60;99.90;;;;;;5092620;28;20177;-59
2022/04/05 11:22:05;;;;;;;6.80;6.20;;;13.70;99.90;;;;;;5095852;28;20166;-60
2022/04/05 11:25:04;;;;;;;6.60;6.07;;;13.80;99.90;;;;;;5096363;28;20177;-59
2022/04/05 11:27:38;;;;;;;6.45;5.95;;;13.90;99.90;;;;;;5096386;28;20248;-59
2022/04/05 11:30:26;;;;;;;6.30;5.70;;;14.10;99.90;;;;;;5096314;28;20201;-59
2022/04/05 11:33:12;;;;;;;6.72;5.47;;;14.10;99.90;;;;;;5096226;28;20231;-59
2022/04/05 11:35:39;;;;;;;5.18;4.78;;;14.20;99.90;;;;;;5096285;28;20185;-59
2022/04/05 11:38:11;;;;;;;5.50;5.00;;;14.30;99.90;;;;;;5096099;28;20169;-59
2022/04/05 11:40:41;;;;;;;5.65;4.50;;;14.50;99.90;;;;;;5096330;28;20201;-59
2022/04/05 11:43:24;;;;;;;4.40;4.03;;;14.70;99.90;;;;;;5095977;28;20641;-59
2022/04/05 11:45:52;;;;;;;4.20;3.90;;;14.70;99.90;;;;;;5096069;28;20177;-59
2022/04/05 11:48:23;;;;;;;4.25;3.92;;;14.70;99.90;;;;;;5095766;28;20533;-59
2022/04/05 11:50:50;;;;;;;4.43;4.13;;;14.60;99.90;;;;;;5095809;28;20202;-59
2022/04/05 11:53:28;;;;;;;4.05;3.75;;;14.40;99.90;;;;;;5095728;28;20173;-59
2022/04/05 11:56:02;;;;;;;4.38;3.97;;;14.10;99.90;;;;;;5095646;28;20521;-60
2022/04/05 11:58:30;;;;;;;4.50;4.10;;;14.20;99.90;;;;;;5095568;28;20166;-60
2022/04/05 12:01:00;;;;;;;4.60;4.20;;;14.20;99.90;;;;;;5095746;28;20169;-59
2022/04/05 12:03:26;;;;;;;4.75;4.35;;;14.40;99.90;;;;;;5095463;28;20626;-59
2022/04/05 12:05:52;;;;;;;4.95;4.43;;;14.70;99.90;;;;;;5095424;28;20285;-60
2022/04/05 12:08:18;;;;;;;5.07;4.70;;;14.90;99.90;;;;;;5095357;28;20200;-60
2022/04/05 12:10:45;;;;;;;4.68;4.28;;;14.90;99.90;;;;;;5095240;28;20680;-60
2022/04/05 12:13:11;;;;;;;4.53;4.20;;;14.80;99.90;;;;;;5095419;28;20231;-59
2022/04/05 12:15:37;;;;;;;4.30;3.90;;;14.80;99.90;;;;;;5095245;28;20257;-59
2022/04/05 12:18:20;;;;;;;4.28;3.97;;;14.70;99.90;;;;;;5095193;28;20594;-60
2022/04/05 12:20:55;;;;;;;4.40;4.10;;;14.80;99.90;;;;;;5095097;28;20209;-59
2022/04/05 12:23:22;;;;;;;4.20;3.90;;;14.90;99.90;;;;;;5095305;28;20226;-59
2022/04/05 12:26:19;;;;;;;3.92;3.63;;;14.70;99.90;;;;;;5095223;28;20177;-60
2022/04/05 12:28:49;;;;;;;4.50;4.10;;;14.60;99.90;;;;;;5095133;28;20581;-60
2022/04/05 12:31:17;;;;;;;6.80;4.35;;;14.60;99.90;;;;;;5094917;28;20631;-60
2022/04/05 12:34:05;;;;;;;5.50;4.32;;;14.70;99.90;;;;;;5094959;28;20178;-60
2022/04/05 12:36:34;;;;;;;4.40;4.10;;;14.70;99.90;;;;;;5095146;28;20170;-60
2022/04/05 12:39:02;;;;;;;5.10;4.60;;;14.50;99.90;;;;;;5094893;28;20170;-59